Time;durP1;ratioP1;P1;durP2;ratioP2;P2;SDS_P1;SDS_P2;PMS_P1;PMS_P2;Temp;Humidity;BMP_temperature;BMP_pressure;BME280_temperature;BME280_humidity;BME280_pressure;Samples;Min_cycle;Max_cycle;Signal;HPM_P1;HPM_P2
2023/01/10 00:00:08;;;;;;;7.30;2.27;;;5.50;99.90;;;;;;4994595;28;20584;-82
2023/01/10 00:02:33;;;;;;;5.85;2.20;;;5.30;99.90;;;;;;4961350;28;20581;-81
2023/01/10 00:04:59;;;;;;;5.40;2.27;;;5.30;99.90;;;;;;4961569;28;20214;-82
2023/01/10 00:07:25;;;;;;;9.70;2.63;;;5.60;99.90;;;;;;4961676;28;20182;-81
2023/01/10 00:09:50;;;;;;;9.23;3.90;;;5.70;99.90;;;;;;4977220;28;20180;-82
2023/01/10 00:15:00;;;;;;;8.10;2.75;;;5.70;99.90;;;;;;4980232;28;20172;-81
2023/01/10 00:17:25;;;;;;;6.17;2.13;;;5.80;99.90;;;;;;4994883;28;20274;-81
2023/01/10 00:19:51;;;;;;;5.83;2.27;;;5.60;99.90;;;;;;4994819;28;20239;-82
2023/01/10 00:22:19;;;;;;;7.17;2.27;;;5.70;99.90;;;;;;4977688;28;20221;-81
2023/01/10 00:24:44;;;;;;;4.45;2.10;;;5.70;99.90;;;;;;4994838;28;20196;-81
2023/01/10 00:27:11;;;;;;;5.60;1.60;;;5.80;99.90;;;;;;4980390;28;20191;-81
2023/01/10 00:29:38;;;;;;;13.38;1.85;;;5.90;99.90;;;;;;4949201;28;20184;-81
2023/01/10 00:32:04;;;;;;;4.40;1.83;;;5.70;99.90;;;;;;4964417;28;20186;-81
2023/01/10 00:34:31;;;;;;;9.40;3.00;;;5.90;99.90;;;;;;4997743;28;20259;-80
2023/01/10 00:36:57;;;;;;;9.77;2.30;;;5.80;99.90;;;;;;4982608;28;20555;-80
2023/01/10 00:39:26;;;;;;;9.97;2.40;;;5.80;99.90;;;;;;5016554;28;20198;-81
2023/01/10 00:44:35;;;;;;;3.95;1.80;;;5.90;99.90;;;;;;4998364;28;20297;-80
2023/01/10 00:47:01;;;;;;;6.20;2.20;;;5.80;99.90;;;;;;4980752;28;20187;-80
2023/01/10 00:49:26;;;;;;;6.70;2.37;;;5.80;99.90;;;;;;4980772;28;20229;-80
2023/01/10 00:51:56;;;;;;;6.83;2.53;;;5.80;99.90;;;;;;4980623;28;20194;-87
2023/01/10 00:54:22;;;;;;;4.13;2.15;;;5.80;99.90;;;;;;4981511;28;20222;-81
2023/01/10 00:56:48;;;;;;;7.27;2.57;;;5.80;99.90;;;;;;4980600;28;20191;-81
2023/01/10 00:59:13;;;;;;;11.40;2.60;;;5.80;99.90;;;;;;4997696;28;20250;-81
2023/01/10 01:01:39;;;;;;;8.20;2.53;;;5.80;99.90;;;;;;4964199;28;20183;-81
2023/01/10 01:04:04;;;;;;;8.40;2.27;;;5.80;99.90;;;;;;4997224;28;20186;-81
2023/01/10 01:06:30;;;;;;;12.90;1.93;;;5.90;99.90;;;;;;4997327;28;20183;-82
2023/01/10 01:08:55;;;;;;;5.50;1.97;;;5.90;99.90;;;;;;4963628;28;20183;-84
2023/01/10 01:11:21;;;;;;;11.13;2.37;;;5.90;99.90;;;;;;4980062;28;20236;-81
2023/01/10 01:13:47;;;;;;;9.40;3.00;;;5.80;99.90;;;;;;4980718;28;20636;-80
2023/01/10 01:16:12;;;;;;;9.23;3.80;;;5.80;99.90;;;;;;4963963;28;20187;-81
2023/01/10 01:18:38;;;;;;;8.50;2.50;;;5.80;99.90;;;;;;4997279;28;20212;-81
2023/01/10 01:21:04;;;;;;;3.80;2.03;;;5.80;99.90;;;;;;4947699;28;20201;-83
2023/01/10 01:23:33;;;;;;;7.70;2.42;;;5.80;99.90;;;;;;4980225;28;20595;-81
2023/01/10 01:25:59;;;;;;;11.18;3.15;;;5.80;99.90;;;;;;4997245;28;20209;-81
2023/01/10 01:28:25;;;;;;;8.88;2.25;;;5.80;99.90;;;;;;4997463;28;20178;-81
2023/01/10 01:30:51;;;;;;;8.43;2.57;;;5.70;99.90;;;;;;4997312;28;20537;-81
2023/01/10 01:33:18;;;;;;;5.07;2.10;;;5.80;99.90;;;;;;4981523;28;20418;-80
2023/01/10 01:35:46;;;;;;;6.88;2.05;;;5.70;99.90;;;;;;4997439;28;20202;-81
2023/01/10 01:38:12;;;;;;;10.63;2.20;;;5.80;99.90;;;;;;4979294;28;20636;-81
2023/01/10 01:40:40;;;;;;;7.63;2.38;;;5.80;99.90;;;;;;4997052;28;20183;-82
2023/01/10 01:43:23;;;;;;;8.57;2.20;;;5.70;99.90;;;;;;4996904;28;20179;-81
2023/01/10 01:45:49;;;;;;;6.60;2.50;;;5.70;99.90;;;;;;4997960;28;20209;-81
2023/01/10 01:48:26;;;;;;;5.70;2.63;;;5.70;99.90;;;;;;4980249;28;20187;-81
2023/01/10 01:51:06;;;;;;;4.40;2.75;;;5.80;99.90;;;;;;4979285;28;20263;-81
2023/01/10 01:53:32;;;;;;;10.40;2.05;;;5.70;99.90;;;;;;4997048;28;20167;-81
2023/01/10 01:56:04;;;;;;;10.10;3.60;;;5.70;99.90;;;;;;4978802;28;20187;-81
2023/01/10 01:58:39;;;;;;;2.95;1.75;;;5.80;99.90;;;;;;4996969;28;20175;-81
2023/01/10 02:01:05;;;;;;;6.88;3.75;;;5.70;99.90;;;;;;4996364;28;20167;-81
2023/01/10 02:03:31;;;;;;;7.40;2.27;;;5.70;99.90;;;;;;4979041;28;20543;-81
2023/01/10 02:05:57;;;;;;;10.47;2.57;;;5.60;99.90;;;;;;4978776;28;20760;-84
2023/01/10 02:08:23;;;;;;;5.65;3.15;;;5.70;99.90;;;;;;4996387;28;20415;-81
2023/01/10 02:11:18;;;;;;;12.03;2.43;;;5.60;99.90;;;;;;4978751;28;20183;-81
2023/01/10 02:13:44;;;;;;;10.48;2.70;;;5.60;99.90;;;;;;4978724;28;20423;-81
2023/01/10 02:16:11;;;;;;;5.30;2.05;;;5.60;99.90;;;;;;4996238;28;20193;-81
2023/01/10 02:18:39;;;;;;;12.82;3.80;;;5.60;99.90;;;;;;4978947;28;20623;-81
2023/01/10 02:21:14;;;;;;;5.88;2.00;;;5.50;99.90;;;;;;4978609;28;20180;-81
2023/01/10 02:24:07;;;;;;;10.60;2.17;;;5.50;99.90;;;;;;4996622;28;20215;-82
2023/01/10 02:26:49;;;;;;;6.00;2.17;;;5.60;99.90;;;;;;4978865;28;20579;-81
2023/01/10 02:29:35;;;;;;;8.00;2.10;;;5.60;99.90;;;;;;4978561;28;20230;-81
2023/01/10 02:32:27;;;;;;;8.93;2.78;;;5.70;99.90;;;;;;4985290;28;20202;-80
2023/01/10 02:35:14;;;;;;;8.52;2.20;;;5.60;99.90;;;;;;4995789;28;20505;-81
2023/01/10 02:37:50;;;;;;;16.70;2.20;;;5.60;99.90;;;;;;4995322;28;20179;-80
2023/01/10 02:40:25;;;;;;;10.00;2.78;;;5.50;99.90;;;;;;4978389;28;20537;-81
2023/01/10 02:42:54;;;;;;;7.82;2.40;;;5.60;99.90;;;;;;4978211;28;20630;-80
2023/01/10 02:45:28;;;;;;;8.95;2.28;;;5.60;99.90;;;;;;4995528;28;20200;-80
2023/01/10 02:47:55;;;;;;;5.88;2.72;;;5.60;99.90;;;;;;4995588;28;20164;-80
2023/01/10 02:50:29;;;;;;;5.70;2.33;;;5.60;99.90;;;;;;4961505;28;20318;-81
2023/01/10 02:53:03;;;;;;;8.48;3.13;;;5.60;99.90;;;;;;4995456;28;20181;-81
2023/01/10 02:56:06;;;;;;;12.25;2.75;;;5.60;99.90;;;;;;4995898;28;20172;-81
2023/01/10 02:58:53;;;;;;;15.20;2.55;;;5.50;99.90;;;;;;4995769;28;20195;-81
2023/01/10 03:01:40;;;;;;;10.50;2.40;;;5.60;99.90;;;;;;4995485;28;20294;-81
2023/01/10 03:04:32;;;;;;;12.98;2.40;;;5.50;99.90;;;;;;4995525;28;20173;-81
2023/01/10 03:07:17;;;;;;;6.35;2.15;;;5.50;99.90;;;;;;4967472;28;20227;-81
2023/01/10 03:09:52;;;;;;;9.10;3.22;;;5.50;99.90;;;;;;4996156;28;20576;-81
2023/01/10 03:12:38;;;;;;;12.13;2.30;;;5.50;99.90;;;;;;4996343;28;20236;-81
2023/01/10 03:15:06;;;;;;;7.03;2.22;;;5.50;99.90;;;;;;4995261;28;20280;-81
2023/01/10 03:17:33;;;;;;;10.50;2.42;;;5.50;99.90;;;;;;4962625;28;20188;-81
2023/01/10 03:20:03;;;;;;;10.98;2.70;;;5.50;99.90;;;;;;4995629;28;20194;-81
2023/01/10 03:22:32;;;;;;;9.45;3.30;;;5.40;99.90;;;;;;4998477;28;20231;-81
2023/01/10 03:25:00;;;;;;;10.80;2.58;;;5.40;99.90;;;;;;5011908;28;20267;-80
2023/01/10 03:27:38;;;;;;;16.80;3.83;;;5.50;99.90;;;;;;4988060;28;20225;-81
2023/01/10 03:30:11;;;;;;;10.43;2.40;;;5.50;99.90;;;;;;4978764;28;20177;-81
2023/01/10 03:32:37;;;;;;;12.70;2.92;;;5.40;99.90;;;;;;4978768;28;20263;-81
2023/01/10 03:35:03;;;;;;;10.03;2.50;;;5.40;99.90;;;;;;4962163;28;20191;-82
2023/01/10 03:37:41;;;;;;;8.82;2.60;;;5.50;99.90;;;;;;4995698;28;20244;-81
2023/01/10 03:40:18;;;;;;;9.10;3.10;;;5.50;99.90;;;;;;4978361;28;20202;-81
2023/01/10 03:46:00;;;;;;;12.23;2.60;;;5.40;99.90;;;;;;4995614;28;20254;-81
2023/01/10 03:48:31;;;;;;;21.23;3.45;;;5.40;99.90;;;;;;4977582;28;20271;-81
2023/01/10 03:50:59;;;;;;;10.45;3.42;;;5.30;99.90;;;;;;4995794;28;20676;-81
2023/01/10 03:53:25;;;;;;;11.07;2.90;;;5.40;99.90;;;;;;4977831;28;20183;-81
2023/01/10 03:55:50;;;;;;;6.68;2.55;;;5.40;99.90;;;;;;4995457;28;20184;-81
2023/01/10 03:58:20;;;;;;;10.47;2.50;;;5.40;99.90;;;;;;4978069;28;20177;-81
2023/01/10 04:00:46;;;;;;;8.13;2.53;;;5.40;99.90;;;;;;4981477;28;20262;-81
2023/01/10 04:03:12;;;;;;;8.90;2.50;;;5.40;99.90;;;;;;4999238;28;20193;-81
2023/01/10 04:05:38;;;;;;;5.80;2.10;;;5.40;99.90;;;;;;4998819;28;20252;-81
2023/01/10 04:08:03;;;;;;;17.97;3.80;;;5.40;99.90;;;;;;4978632;28;20211;-84
2023/01/10 04:10:29;;;;;;;14.43;2.70;;;5.30;99.90;;;;;;4995491;28;20774;-83
2023/01/10 04:13:00;;;;;;;11.97;2.60;;;5.40;99.90;;;;;;4979061;28;20194;-81
2023/01/10 04:15:25;;;;;;;10.35;3.30;;;5.40;99.90;;;;;;4996050;28;20259;-83
2023/01/10 04:17:51;;;;;;;8.50;3.20;;;5.20;99.90;;;;;;4997918;28;20199;-81
2023/01/10 04:20:17;;;;;;;14.87;4.00;;;5.30;99.90;;;;;;4998188;28;20215;-81
2023/01/10 04:22:44;;;;;;;13.10;3.60;;;5.30;99.90;;;;;;4982011;28;20554;-83
2023/01/10 04:25:10;;;;;;;5.85;2.30;;;5.20;99.90;;;;;;4982379;28;20231;-81
2023/01/10 04:27:35;;;;;;;8.20;2.90;;;5.20;99.90;;;;;;4982547;28;20186;-81
2023/01/10 04:30:01;;;;;;;12.43;3.23;;;5.20;99.90;;;;;;4967819;28;20396;-81
2023/01/10 04:32:27;;;;;;;5.43;2.23;;;5.20;99.90;;;;;;4982699;28;20425;-81
2023/01/10 04:34:52;;;;;;;8.53;2.40;;;5.20;99.90;;;;;;4981517;28;20186;-81
2023/01/10 04:37:18;;;;;;;9.57;2.47;;;5.20;99.90;;;;;;4980795;28;20175;-81
2023/01/10 04:39:44;;;;;;;10.43;2.93;;;5.30;99.90;;;;;;4948980;28;20184;-81
2023/01/10 04:42:10;;;;;;;10.83;4.03;;;5.30;99.90;;;;;;4980517;28;20413;-81
2023/01/10 04:44:35;;;;;;;13.40;3.30;;;5.20;99.90;;;;;;4964489;28;20211;-81
2023/01/10 04:47:01;;;;;;;7.23;2.80;;;5.10;99.90;;;;;;4977562;28;20181;-83
2023/01/10 04:49:26;;;;;;;12.60;3.03;;;5.10;99.90;;;;;;4962736;28;20750;-83
2023/01/10 04:51:52;;;;;;;12.30;3.30;;;5.10;99.90;;;;;;4977243;28;20191;-84
2023/01/10 04:54:21;;;;;;;10.13;3.20;;;5.10;99.90;;;;;;4977692;28;20184;-81
2023/01/10 04:56:47;;;;;;;18.25;3.92;;;5.20;99.90;;;;;;4977560;28;20575;-82
2023/01/10 04:59:13;;;;;;;12.00;3.00;;;5.20;99.90;;;;;;4994641;28;20179;-82
2023/01/10 05:01:38;;;;;;;8.77;2.23;;;5.20;99.90;;;;;;4996758;28;20183;-81
2023/01/10 05:04:05;;;;;;;7.67;3.10;;;5.20;99.90;;;;;;4997786;28;20180;-81
2023/01/10 05:06:31;;;;;;;9.30;3.50;;;5.20;99.90;;;;;;4979416;28;20191;-81
2023/01/10 05:08:56;;;;;;;5.32;2.33;;;5.20;99.90;;;;;;4980379;28;20182;-81
2023/01/10 05:11:22;;;;;;;16.50;3.23;;;5.20;99.90;;;;;;4946934;28;20670;-81
2023/01/10 05:13:48;;;;;;;13.33;3.53;;;5.20;99.90;;;;;;4980138;28;20185;-82
2023/01/10 05:16:14;;;;;;;15.40;3.23;;;5.10;99.90;;;;;;4963927;28;20188;-81
2023/01/10 05:18:40;;;;;;;14.48;3.38;;;5.10;99.90;;;;;;4980091;28;20199;-81
2023/01/10 05:21:09;;;;;;;6.83;1.80;;;5.10;99.90;;;;;;4979822;28;20188;-80
2023/01/10 05:23:35;;;;;;;12.80;2.53;;;5.10;99.90;;;;;;4998391;28;20241;-81
2023/01/10 05:26:09;;;;;;;10.20;2.70;;;5.10;99.90;;;;;;4968940;28;20222;-80
2023/01/10 05:28:35;;;;;;;11.10;2.67;;;5.00;99.90;;;;;;5000712;28;20164;-81
2023/01/10 05:31:00;;;;;;;13.23;2.70;;;5.10;99.90;;;;;;4980259;28;20191;-81
2023/01/10 05:33:26;;;;;;;13.00;3.20;;;5.00;99.90;;;;;;4981711;28;20413;-81
2023/01/10 05:35:52;;;;;;;8.90;2.75;;;5.00;99.90;;;;;;4981882;28;20680;-81
2023/01/10 05:38:18;;;;;;;10.40;3.53;;;4.90;99.90;;;;;;4998458;28;20203;-81
2023/01/10 05:40:43;;;;;;;11.70;2.73;;;4.90;99.90;;;;;;4949573;28;20184;-81
2023/01/10 05:43:10;;;;;;;15.33;5.20;;;4.90;99.90;;;;;;5000435;28;20191;-84
2023/01/10 05:45:36;;;;;;;16.88;3.13;;;4.80;99.90;;;;;;4999164;28;20222;-81
2023/01/10 05:48:02;;;;;;;15.33;3.07;;;4.70;99.90;;;;;;4979788;28;20279;-81
2023/01/10 05:50:28;;;;;;;11.10;4.00;;;4.70;99.90;;;;;;4998623;28;20228;-81
2023/01/10 05:52:53;;;;;;;12.00;3.07;;;4.70;99.90;;;;;;4967373;28;20188;-81
2023/01/10 05:55:19;;;;;;;12.50;2.40;;;4.60;99.90;;;;;;4979236;28;20470;-81
2023/01/10 05:57:44;;;;;;;12.83;3.17;;;4.90;99.90;;;;;;4963655;28;20213;-81
2023/01/10 06:00:10;;;;;;;15.27;4.50;;;4.60;99.90;;;;;;4997095;28;20176;-84
2023/01/10 06:02:36;;;;;;;17.20;4.00;;;4.50;99.90;;;;;;4963114;28;20185;-81
2023/01/10 06:05:02;;;;;;;14.23;4.33;;;4.40;99.90;;;;;;4996466;28;20217;-80
2023/01/10 06:07:27;;;;;;;12.50;3.10;;;4.50;99.90;;;;;;4962793;28;20192;-81
2023/01/10 06:09:53;;;;;;;10.57;5.50;;;4.40;99.90;;;;;;4977566;28;20189;-80
2023/01/10 06:12:19;;;;;;;8.37;2.50;;;4.40;99.90;;;;;;4996641;28;20183;-83
2023/01/10 06:14:45;;;;;;;13.70;3.13;;;4.40;99.90;;;;;;4979884;28;20187;-81
2023/01/10 06:17:10;;;;;;;10.73;2.75;;;4.40;99.90;;;;;;4979727;28;20274;-80
2023/01/10 06:19:36;;;;;;;12.83;3.20;;;4.40;99.90;;;;;;4962924;28;20231;-81
2023/01/10 06:22:03;;;;;;;22.77;4.50;;;4.30;99.90;;;;;;4979339;28;20282;-81
2023/01/10 06:24:28;;;;;;;14.98;3.85;;;4.30;99.90;;;;;;4995502;28;20330;-82
2023/01/10 06:26:54;;;;;;;17.00;3.03;;;4.40;99.90;;;;;;4962436;28;20666;-81
2023/01/10 06:29:20;;;;;;;13.73;3.87;;;4.40;99.90;;;;;;4978206;28;20187;-82
2023/01/10 06:31:45;;;;;;;11.10;4.00;;;4.50;99.90;;;;;;4978219;28;20632;-80
2023/01/10 06:34:11;;;;;;;10.23;2.87;;;4.50;99.90;;;;;;4961857;28;20635;-81
2023/01/10 06:36:36;;;;;;;8.37;2.67;;;4.50;99.90;;;;;;4995602;28;20175;-81
2023/01/10 06:39:02;;;;;;;11.07;2.80;;;4.60;99.90;;;;;;4995783;28;20218;-81
2023/01/10 06:41:28;;;;;;;10.63;3.23;;;4.50;99.90;;;;;;4977521;28;20270;-81
2023/01/10 06:43:53;;;;;;;15.37;4.63;;;4.50;99.90;;;;;;4995393;28;20184;-81
2023/01/10 06:46:19;;;;;;;12.13;4.10;;;4.30;99.90;;;;;;4995005;28;20203;-81
2023/01/10 06:48:46;;;;;;;15.47;4.87;;;4.30;99.90;;;;;;4995504;28;20214;-81
2023/01/10 06:51:13;;;;;;;14.77;4.32;;;4.30;99.90;;;;;;4995195;28;20219;-81
2023/01/10 06:53:39;;;;;;;18.60;4.50;;;4.30;99.90;;;;;;4977943;28;20179;-80
2023/01/10 06:56:05;;;;;;;18.80;3.97;;;4.20;99.90;;;;;;4978004;28;20194;-81
2023/01/10 06:58:31;;;;;;;21.63;3.25;;;4.20;99.90;;;;;;4994994;28;20515;-81
2023/01/10 07:00:57;;;;;;;17.05;4.00;;;4.20;99.90;;;;;;4961722;28;20198;-81
2023/01/10 07:03:23;;;;;;;11.70;2.97;;;4.40;99.90;;;;;;4995468;28;20552;-81
2023/01/10 07:05:48;;;;;;;11.17;3.10;;;4.30;99.90;;;;;;4995122;28;20553;-81
2023/01/10 07:08:15;;;;;;;11.97;3.87;;;4.20;99.90;;;;;;4995336;28;20184;-83
2023/01/10 07:10:41;;;;;;;11.23;3.38;;;4.20;99.90;;;;;;4995179;28;20210;-81
2023/01/10 07:13:07;;;;;;;10.32;3.40;;;4.10;99.90;;;;;;4995135;28;20180;-81
2023/01/10 07:15:33;;;;;;;17.03;3.67;;;4.30;99.90;;;;;;4995374;28;20191;-81
2023/01/10 07:17:58;;;;;;;17.63;3.80;;;4.10;99.90;;;;;;4978110;28;20187;-81
2023/01/10 07:20:24;;;;;;;9.47;3.00;;;4.20;99.90;;;;;;4977720;28;20245;-83
2023/01/10 07:22:58;;;;;;;15.32;4.30;;;4.20;99.90;;;;;;4995084;28;20195;-81
2023/01/10 07:25:25;;;;;;;12.70;3.75;;;4.20;99.90;;;;;;4995268;28;20202;-81
2023/01/10 07:27:54;;;;;;;13.05;3.80;;;4.10;99.90;;;;;;4978247;28;20194;-81
2023/01/10 07:30:19;;;;;;;19.45;4.13;;;4.10;99.90;;;;;;4977461;28;20183;-81
2023/01/10 07:32:45;;;;;;;14.17;3.10;;;4.10;99.90;;;;;;4961586;28;20190;-82
2023/01/10 07:35:10;;;;;;;11.90;2.70;;;4.00;99.90;;;;;;4980044;28;20187;-81
2023/01/10 07:37:36;;;;;;;23.23;3.43;;;4.10;99.90;;;;;;4999022;28;20203;-82
2023/01/10 07:40:02;;;;;;;17.60;2.87;;;4.10;99.90;;;;;;4965412;28;20215;-82
2023/01/10 07:42:27;;;;;;;16.43;3.80;;;4.00;99.90;;;;;;4998559;28;20187;-81
2023/01/10 07:44:53;;;;;;;15.30;3.20;;;4.10;99.90;;;;;;4981154;28;20207;-81
2023/01/10 07:47:18;;;;;;;20.60;4.70;;;3.90;99.90;;;;;;4964746;28;20258;-82
2023/01/10 07:49:44;;;;;;;13.37;3.13;;;4.30;99.90;;;;;;4948556;28;20699;-81
2023/01/10 07:52:09;;;;;;;16.37;5.00;;;4.00;99.90;;;;;;4965438;28;20218;-82
2023/01/10 07:54:35;;;;;;;28.30;7.80;;;4.10;99.90;;;;;;4998426;28;20234;-82
2023/01/10 07:57:01;;;;;;;24.17;5.80;;;3.90;99.90;;;;;;4981211;28;20494;-81
2023/01/10 07:59:26;;;;;;;18.53;4.00;;;3.90;99.90;;;;;;4980693;28;20632;-82
2023/01/10 08:01:53;;;;;;;17.43;4.07;;;4.00;99.90;;;;;;4965064;28;20446;-82
2023/01/10 08:04:19;;;;;;;13.63;3.72;;;4.10;99.90;;;;;;4964577;28;20537;-82
2023/01/10 08:06:44;;;;;;;25.98;4.65;;;4.00;99.90;;;;;;4980672;28;20187;-82
2023/01/10 08:09:10;;;;;;;13.60;3.67;;;4.00;99.90;;;;;;4980716;28;20179;-82
2023/01/10 08:11:36;;;;;;;17.38;4.78;;;3.90;99.90;;;;;;4997677;28;20259;-82
2023/01/10 08:14:02;;;;;;;16.70;7.80;;;4.00;99.90;;;;;;4998195;28;20331;-82
2023/01/10 08:16:27;;;;;;;24.83;5.10;;;3.90;99.90;;;;;;4980442;28;20282;-82
2023/01/10 08:18:53;;;;;;;15.13;3.73;;;4.00;99.90;;;;;;4997757;28;20183;-82
2023/01/10 08:21:19;;;;;;;20.23;5.40;;;4.10;99.90;;;;;;4997923;28;20183;-82
2023/01/10 08:23:44;;;;;;;19.70;5.23;;;3.90;99.90;;;;;;4980876;28;20187;-82
2023/01/10 08:26:10;;;;;;;9.80;3.73;;;4.10;99.90;;;;;;4964710;28;20211;-82
2023/01/10 08:28:36;;;;;;;19.80;4.80;;;4.10;99.90;;;;;;4963974;28;20220;-82
2023/01/10 08:31:08;;;;;;;14.10;4.47;;;3.90;99.90;;;;;;4964310;28;20191;-82
2023/01/10 08:33:36;;;;;;;11.07;3.05;;;4.10;99.90;;;;;;4980487;28;20191;-82
2023/01/10 08:36:01;;;;;;;16.23;4.60;;;4.20;99.90;;;;;;4997965;28;20187;-82
2023/01/10 08:38:27;;;;;;;13.50;4.47;;;4.10;99.90;;;;;;4980000;28;20262;-82
2023/01/10 08:40:57;;;;;;;17.27;6.30;;;4.30;99.90;;;;;;4997750;28;20192;-82
2023/01/10 08:43:22;;;;;;;11.77;3.33;;;4.50;99.90;;;;;;4998421;28;20200;-82
2023/01/10 08:45:48;;;;;;;19.53;3.23;;;4.50;99.90;;;;;;4997823;28;20209;-82
2023/01/10 08:48:14;;;;;;;21.30;4.80;;;4.50;99.90;;;;;;4965239;28;20484;-83
2023/01/10 08:50:39;;;;;;;9.07;3.47;;;4.60;99.90;;;;;;4964060;28;20231;-82
2023/01/10 08:53:06;;;;;;;20.07;3.97;;;4.50;99.90;;;;;;4998603;28;20195;-82
2023/01/10 08:55:34;;;;;;;15.68;2.75;;;4.70;99.90;;;;;;4979201;28;20179;-82
2023/01/10 08:58:00;;;;;;;26.17;4.43;;;4.70;99.90;;;;;;4998923;28;20190;-81
2023/01/10 09:00:26;;;;;;;11.40;3.30;;;4.80;99.90;;;;;;4980750;28;20693;-82
2023/01/10 09:02:52;;;;;;;16.10;4.30;;;4.80;99.90;;;;;;4964863;28;20253;-82
2023/01/10 09:05:18;;;;;;;14.20;3.73;;;4.90;99.90;;;;;;4948953;28;20213;-82
2023/01/10 09:07:45;;;;;;;25.80;4.17;;;4.70;99.90;;;;;;4964253;28;20600;-82
2023/01/10 09:10:11;;;;;;;22.58;4.80;;;4.90;99.90;;;;;;4964435;28;20445;-82
2023/01/10 09:12:55;;;;;;;14.15;3.38;;;4.90;99.90;;;;;;4963185;28;20224;-82
2023/01/10 09:15:23;;;;;;;12.45;2.72;;;5.00;99.90;;;;;;4966593;28;20184;-82
2023/01/10 09:17:52;;;;;;;14.40;3.60;;;5.10;99.90;;;;;;4997753;28;20225;-82
2023/01/10 09:20:17;;;;;;;15.18;3.80;;;5.00;99.90;;;;;;4996909;28;20185;-83
2023/01/10 09:22:43;;;;;;;15.73;4.83;;;5.10;99.90;;;;;;4980236;28;20646;-82
2023/01/10 09:25:10;;;;;;;9.40;2.63;;;5.20;99.90;;;;;;4979698;28;20214;-82
2023/01/10 09:27:35;;;;;;;16.92;3.20;;;5.30;99.90;;;;;;4976708;28;20179;-83
2023/01/10 09:30:01;;;;;;;22.07;4.23;;;5.40;99.90;;;;;;4959184;28;20639;-83
2023/01/10 09:32:27;;;;;;;14.43;3.40;;;5.40;99.90;;;;;;4957379;28;20626;-83
2023/01/10 09:34:52;;;;;;;11.40;3.50;;;5.50;99.90;;;;;;4958756;28;20613;-82
2023/01/10 09:37:18;;;;;;;15.57;4.43;;;5.60;99.90;;;;;;4976111;28;20871;-83
2023/01/10 09:39:44;;;;;;;16.10;3.47;;;5.70;99.90;;;;;;4978960;28;20192;-82
2023/01/10 09:42:14;;;;;;;12.63;3.43;;;5.80;99.90;;;;;;4981074;28;20550;-83
2023/01/10 09:44:55;;;;;;;15.02;3.38;;;6.00;99.90;;;;;;4998098;28;20231;-82
2023/01/10 09:47:32;;;;;;;17.58;3.90;;;6.10;99.90;;;;;;4980050;28;20251;-82
2023/01/10 09:50:20;;;;;;;13.27;4.72;;;6.20;99.90;;;;;;4979022;28;20263;-82
2023/01/10 09:53:09;;;;;;;16.77;4.53;;;6.30;99.90;;;;;;4978450;28;20186;-82
2023/01/10 09:55:37;;;;;;;19.88;3.70;;;6.30;99.90;;;;;;4996232;28;20203;-82
2023/01/10 09:58:11;;;;;;;16.77;5.47;;;6.30;99.90;;;;;;4978369;28;20182;-82
2023/01/10 10:00:39;;;;;;;11.68;3.40;;;6.40;99.90;;;;;;4996198;28;20184;-82
2023/01/10 10:03:17;;;;;;;25.10;4.88;;;6.50;99.90;;;;;;4996654;28;20179;-82
2023/01/10 10:05:43;;;;;;;25.40;5.05;;;6.70;99.90;;;;;;4977727;28;20203;-83
2023/01/10 10:08:15;;;;;;;27.80;3.80;;;6.80;99.90;;;;;;4978522;28;20194;-82
2023/01/10 10:10:59;;;;;;;8.23;2.47;;;6.90;99.90;;;;;;4978800;28;20579;-82
2023/01/10 10:13:49;;;;;;;22.60;5.95;;;7.00;99.90;;;;;;4979275;28;20188;-83
2023/01/10 10:16:26;;;;;;;15.60;4.70;;;7.10;99.90;;;;;;4996603;28;20222;-82
2023/01/10 10:19:11;;;;;;;12.95;3.22;;;7.30;99.90;;;;;;4978741;28;20226;-82
2023/01/10 10:21:52;;;;;;;24.70;4.38;;;7.40;99.90;;;;;;4978201;28;20172;-82
2023/01/10 10:24:42;;;;;;;15.63;3.90;;;7.60;99.90;;;;;;4978175;28;20167;-82
2023/01/10 10:27:21;;;;;;;13.70;3.50;;;7.90;99.90;;;;;;4995907;28;20175;-83
2023/01/10 10:30:01;;;;;;;19.52;3.75;;;7.80;99.90;;;;;;4995454;28;20175;-82
2023/01/10 10:32:35;;;;;;;17.13;3.30;;;7.80;99.90;;;;;;4995670;28;20230;-82
2023/01/10 10:35:11;;;;;;;13.70;3.10;;;7.80;99.90;;;;;;4978381;28;20174;-82
2023/01/10 10:37:43;;;;;;;15.23;3.20;;;7.90;99.90;;;;;;4978416;28;20179;-82
2023/01/10 10:40:19;;;;;;;12.30;3.33;;;8.10;99.90;;;;;;4995796;28;20190;-82
2023/01/10 10:42:50;;;;;;;12.57;3.40;;;8.20;99.90;;;;;;4978253;28;20640;-82
2023/01/10 10:45:21;;;;;;;14.88;2.80;;;8.40;99.90;;;;;;4995082;28;20198;-82
2023/01/10 10:47:56;;;;;;;11.50;3.03;;;8.50;99.90;;;;;;4977860;28;20191;-82
2023/01/10 10:50:32;;;;;;;14.05;2.78;;;8.60;99.90;;;;;;4978238;28;20325;-82
2023/01/10 10:53:00;;;;;;;8.45;2.45;;;;;;;;;;4978071;28;20578;-82
2023/01/10 10:55:33;;;;;;;7.63;2.03;;;8.60;99.90;;;;;;4995563;28;20167;-83
2023/01/10 10:58:00;;;;;;;13.63;3.53;;;8.90;99.90;;;;;;4975371;28;20270;-82
2023/01/10 11:00:27;;;;;;;34.13;4.03;;;8.80;99.90;;;;;;4945307;28;20187;-83
2023/01/10 11:03:00;;;;;;;23.48;3.75;;;8.70;99.90;;;;;;4977939;28;20187;-82
2023/01/10 11:05:38;;;;;;;16.38;3.38;;;8.70;99.90;;;;;;4995499;28;20195;-83
2023/01/10 11:08:12;;;;;;;13.82;3.45;;;8.80;99.90;;;;;;4995081;28;20547;-83
2023/01/10 11:10:41;;;;;;;12.80;2.65;;;8.80;99.90;;;;;;4978306;28;20160;-83
2023/01/10 11:13:16;;;;;;;14.98;3.58;;;8.80;99.90;;;;;;4995468;28;20234;-83
2023/01/10 11:15:45;;;;;;;18.33;3.35;;;8.80;99.90;;;;;;4994998;28;20189;-83
2023/01/10 11:18:26;;;;;;;8.27;2.70;;;8.90;99.90;;;;;;4977942;28;20201;-83
2023/01/10 11:20:52;;;;;;;9.20;3.03;;;8.90;99.90;;;;;;4994881;28;20647;-82
2023/01/10 11:23:51;;;;;;;13.17;2.67;;;8.90;99.90;;;;;;4977809;28;20183;-83
2023/01/10 11:26:22;;;;;;;9.60;2.28;;;9.00;99.90;;;;;;4982397;28;20305;-82
2023/01/10 11:28:51;;;;;;;14.05;3.22;;;9.00;99.90;;;;;;4977859;28;20215;-82
2023/01/10 11:31:26;;;;;;;7.03;2.67;;;9.00;99.90;;;;;;4996112;28;20180;-82
2023/01/10 11:33:52;;;;;;;15.60;3.58;;;9.00;99.90;;;;;;4979147;28;20262;-82
2023/01/10 11:36:18;;;;;;;18.00;3.15;;;8.90;99.90;;;;;;4947335;28;20207;-82
2023/01/10 11:38:59;;;;;;;11.23;2.47;;;9.00;99.90;;;;;;4962442;28;20266;-82
2023/01/10 11:41:30;;;;;;;12.50;2.30;;;9.00;99.90;;;;;;4995961;28;20203;-84
2023/01/10 11:44:14;;;;;;;10.20;2.40;;;9.20;99.90;;;;;;4977944;28;20164;-82
2023/01/10 11:46:46;;;;;;;10.32;2.40;;;9.20;99.90;;;;;;4979792;28;20186;-83
2023/01/10 11:49:18;;;;;;;10.45;2.10;;;9.30;99.90;;;;;;4979754;28;20566;-83
2023/01/10 11:51:48;;;;;;;12.43;2.28;;;9.20;99.90;;;;;;4978522;28;20184;-82
2023/01/10 11:54:20;;;;;;;10.32;3.00;;;9.40;99.90;;;;;;4995875;28;20183;-83
2023/01/10 11:57:01;;;;;;;10.02;2.58;;;9.40;99.90;;;;;;4993007;28;20179;-84
2023/01/10 11:59:28;;;;;;;13.05;2.83;;;9.50;99.90;;;;;;4971989;28;20180;-82
2023/01/10 12:01:59;;;;;;;9.52;3.90;;;9.70;99.90;;;;;;4955929;28;20187;-83
2023/01/10 12:04:31;;;;;;;8.05;2.28;;;9.70;99.90;;;;;;4990648;28;20603;-82
2023/01/10 12:07:01;;;;;;;18.90;4.65;;;9.90;99.90;;;;;;4990564;28;20179;-83
2023/01/10 12:10:02;;;;;;;11.10;3.22;;;9.90;99.90;;;;;;4972064;28;20195;-84
2023/01/10 12:12:30;;;;;;;16.00;4.38;;;9.80;99.90;;;;;;4902310;29;20188;-82
2023/01/10 12:14:58;;;;;;;22.42;5.85;;;9.80;99.90;;;;;;4983358;28;20251;-82
2023/01/10 12:17:33;;;;;;;11.07;3.33;;;9.90;99.90;;;;;;4977525;28;20187;-83
2023/01/10 12:20:01;;;;;;;11.43;3.88;;;9.90;99.90;;;;;;4977306;28;20195;-82
2023/01/10 12:22:37;;;;;;;18.85;4.72;;;9.90;99.90;;;;;;4996841;28;20505;-83
2023/01/10 12:25:17;;;;;;;8.57;2.90;;;9.80;99.90;;;;;;4980857;28;20207;-83
2023/01/10 12:27:45;;;;;;;8.25;2.45;;;9.80;99.90;;;;;;4998379;28;20179;-83
2023/01/10 12:30:25;;;;;;;18.10;4.25;;;9.60;99.90;;;;;;4980739;28;20691;-82
2023/01/10 12:32:53;;;;;;;17.25;3.65;;;9.60;99.90;;;;;;5000247;28;20172;-83
2023/01/10 12:35:32;;;;;;;11.15;3.15;;;9.50;99.90;;;;;;4992925;28;20612;-82
2023/01/10 12:39:08;;;;;;;14.65;3.28;;;9.40;99.90;;;;;;5003318;28;20167;-83
2023/01/10 12:41:09;;;;;;;9.32;2.10;;;9.40;99.90;;;;;;4992387;28;20192;-82
2023/01/10 12:46:49;;;;;;;9.63;2.97;;;9.30;99.90;;;;;;4998498;28;20636;-83
2023/01/10 12:49:22;;;;;;;12.98;2.65;;;9.30;99.90;;;;;;4980518;28;20199;-82
2023/01/10 12:51:51;;;;;;;11.05;3.83;;;9.20;99.90;;;;;;4980189;28;20179;-83
2023/01/10 12:54:26;;;;;;;12.32;3.30;;;9.20;99.90;;;;;;4981230;28;20199;-82
2023/01/10 12:56:53;;;;;;;10.25;2.00;;;9.20;99.90;;;;;;4980519;28;20577;-83
2023/01/10 12:59:28;;;;;;;12.23;2.25;;;9.20;99.90;;;;;;4964676;28;20187;-82
2023/01/10 13:02:03;;;;;;;7.80;2.20;;;9.20;99.90;;;;;;4997960;28;20171;-82
2023/01/10 13:04:33;;;;;;;7.53;2.00;;;9.10;99.90;;;;;;4966515;28;20183;-82
2023/01/10 13:07:00;;;;;;;11.25;2.33;;;9.10;99.90;;;;;;4980126;28;20188;-82
2023/01/10 13:09:28;;;;;;;8.00;2.80;;;9.00;99.90;;;;;;4998243;28;20214;-83
2023/01/10 13:12:17;;;;;;;10.27;2.53;;;9.00;99.90;;;;;;4997853;28;20258;-82
2023/01/10 13:14:59;;;;;;;9.07;2.70;;;9.00;99.90;;;;;;4980007;28;20191;-82